sensor_id;sensor_type;location;lat;lon;timestamp;temperature;humidity
49148;DHT22;41980;45.550;12.070;2023-06-10T00:02:22;20.30;71.90
49148;DHT22;41980;45.550;12.070;2023-06-10T00:08:24;20.30;71.60
49148;DHT22;41980;45.550;12.070;2023-06-10T00:14:27;20.40;71.60
49148;DHT22;41980;45.550;12.070;2023-06-10T00:20:29;20.40;71.90
49148;DHT22;41980;45.550;12.070;2023-06-10T00:26:32;20.40;72.40
49148;DHT22;41980;45.550;12.070;2023-06-10T00:32:35;20.50;72.30
49148;DHT22;41980;45.550;12.070;2023-06-10T00:38:37;20.50;72.10
49148;DHT22;41980;45.550;12.070;2023-06-10T00:44:39;20.50;71.80
49148;DHT22;41980;45.550;12.070;2023-06-10T00:50:41;20.50;71.80
49148;DHT22;41980;45.550;12.070;2023-06-10T00:56:43;20.50;71.60
49148;DHT22;41980;45.550;12.070;2023-06-10T01:02:45;20.40;72.00
49148;DHT22;41980;45.550;12.070;2023-06-10T01:14:55;20.30;72.70
49148;DHT22;41980;45.550;12.070;2023-06-10T01:20:59;20.40;72.30
49148;DHT22;41980;45.550;12.070;2023-06-10T01:27:05;20.20;72.40
49148;DHT22;41980;45.550;12.070;2023-06-10T01:33:09;20.10;73.10
49148;DHT22;41980;45.550;12.070;2023-06-10T01:39:14;20.00;73.70
49148;DHT22;41980;45.550;12.070;2023-06-10T01:45:17;19.90;74.60
49148;DHT22;41980;45.550;12.070;2023-06-10T01:51:18;19.80;74.60
49148;DHT22;41980;45.550;12.070;2023-06-10T01:57:23;19.80;74.60
49148;DHT22;41980;45.550;12.070;2023-06-10T02:03:24;19.80;74.90
49148;DHT22;41980;45.550;12.070;2023-06-10T02:09:26;19.80;75.00
49148;DHT22;41980;45.550;12.070;2023-06-10T02:15:29;19.80;74.90
49148;DHT22;41980;45.550;12.070;2023-06-10T02:21:31;19.80;74.90
49148;DHT22;41980;45.550;12.070;2023-06-10T02:27:33;19.80;75.10
49148;DHT22;41980;45.550;12.070;2023-06-10T02:33:35;19.80;75.20
49148;DHT22;41980;45.550;12.070;2023-06-10T02:39:43;19.80;75.30
49148;DHT22;41980;45.550;12.070;2023-06-10T02:45:47;19.80;75.20
49148;DHT22;41980;45.550;12.070;2023-06-10T02:51:50;19.80;75.30
49148;DHT22;41980;45.550;12.070;2023-06-10T02:57:55;19.80;75.30
49148;DHT22;41980;45.550;12.070;2023-06-10T03:03:59;19.80;75.20
49148;DHT22;41980;45.550;12.070;2023-06-10T03:10:01;19.80;74.90
49148;DHT22;41980;45.550;12.070;2023-06-10T03:16:03;19.80;74.80
49148;DHT22;41980;45.550;12.070;2023-06-10T03:22:09;19.90;74.80
49148;DHT22;41980;45.550;12.070;2023-06-10T03:28:15;20.00;75.60
49148;DHT22;41980;45.550;12.070;2023-06-10T03:34:18;20.00;74.60
49148;DHT22;41980;45.550;12.070;2023-06-10T03:40:20;20.10;74.40
49148;DHT22;41980;45.550;12.070;2023-06-10T03:46:23;20.20;75.10
49148;DHT22;41980;45.550;12.070;2023-06-10T03:52:25;20.30;73.90
49148;DHT22;41980;45.550;12.070;2023-06-10T03:58:27;20.30;74.30
49148;DHT22;41980;45.550;12.070;2023-06-10T04:04:30;20.30;73.60
49148;DHT22;41980;45.550;12.070;2023-06-10T04:10:33;20.30;73.50
49148;DHT22;41980;45.550;12.070;2023-06-10T04:16:36;20.40;73.50
49148;DHT22;41980;45.550;12.070;2023-06-10T04:22:41;20.50;74.50
49148;DHT22;41980;45.550;12.070;2023-06-10T04:28:43;20.50;73.90
49148;DHT22;41980;45.550;12.070;2023-06-10T04:34:46;20.80;73.40
49148;DHT22;41980;45.550;12.070;2023-06-10T04:40:48;20.90;73.50
49148;DHT22;41980;45.550;12.070;2023-06-10T04:46:51;21.20;72.60
49148;DHT22;41980;45.550;12.070;2023-06-10T04:52:53;21.80;72.50
49148;DHT22;41980;45.550;12.070;2023-06-10T04:59:00;22.40;72.00
49148;DHT22;41980;45.550;12.070;2023-06-10T05:05:02;23.50;71.40
49148;DHT22;41980;45.550;12.070;2023-06-10T05:11:04;24.80;69.90
49148;DHT22;41980;45.550;12.070;2023-06-10T05:17:06;25.50;68.30
49148;DHT22;41980;45.550;12.070;2023-06-10T05:23:08;25.50;68.50
49148;DHT22;41980;45.550;12.070;2023-06-10T05:29:10;24.80;69.00
49148;DHT22;41980;45.550;12.070;2023-06-10T05:35:12;24.00;70.00
49148;DHT22;41980;45.550;12.070;2023-06-10T05:41:14;24.40;70.50
49148;DHT22;41980;45.550;12.070;2023-06-10T05:47:15;25.00;69.10
49148;DHT22;41980;45.550;12.070;2023-06-10T05:53:17;25.20;68.90
49148;DHT22;41980;45.550;12.070;2023-06-10T05:59:20;25.30;68.70
49148;DHT22;41980;45.550;12.070;2023-06-10T06:05:24;25.40;68.40
49148;DHT22;41980;45.550;12.070;2023-06-10T06:11:26;25.20;68.10
49148;DHT22;41980;45.550;12.070;2023-06-10T06:17:28;24.80;68.60
49148;DHT22;41980;45.550;12.070;2023-06-10T06:23:30;24.60;68.80
49148;DHT22;41980;45.550;12.070;2023-06-10T06:29:32;24.40;69.00
49148;DHT22;41980;45.550;12.070;2023-06-10T06:35:34;24.50;68.80
49148;DHT22;41980;45.550;12.070;2023-06-10T06:41:36;24.90;68.90
49148;DHT22;41980;45.550;12.070;2023-06-10T06:47:38;26.50;67.10
49148;DHT22;41980;45.550;12.070;2023-06-10T06:53:40;26.40;66.50
49148;DHT22;41980;45.550;12.070;2023-06-10T06:59:46;26.30;66.40
49148;DHT22;41980;45.550;12.070;2023-06-10T07:05:50;26.00;66.80
49148;DHT22;41980;45.550;12.070;2023-06-10T07:11:52;26.00;67.00
49148;DHT22;41980;45.550;12.070;2023-06-10T07:17:54;26.40;66.90
49148;DHT22;41980;45.550;12.070;2023-06-10T07:23:57;27.00;65.90
49148;DHT22;41980;45.550;12.070;2023-06-10T07:29:59;26.80;65.60
49148;DHT22;41980;45.550;12.070;2023-06-10T07:36:02;26.60;65.90
49148;DHT22;41980;45.550;12.070;2023-06-10T07:42:05;26.80;65.80
49148;DHT22;41980;45.550;12.070;2023-06-10T07:48:08;27.20;65.50
49148;DHT22;41980;45.550;12.070;2023-06-10T07:54:10;28.40;64.80
49148;DHT22;41980;45.550;12.070;2023-06-10T08:00:16;30.50;62.70
49148;DHT22;41980;45.550;12.070;2023-06-10T08:06:19;30.90;60.50
49148;DHT22;41980;45.550;12.070;2023-06-10T08:12:22;30.50;61.10
49148;DHT22;41980;45.550;12.070;2023-06-10T08:18:24;30.20;61.10
49148;DHT22;41980;45.550;12.070;2023-06-10T08:24:26;30.00;61.40
49148;DHT22;41980;45.550;12.070;2023-06-10T08:30:28;29.60;60.90
49148;DHT22;41980;45.550;12.070;2023-06-10T08:36:30;29.60;61.20
49148;DHT22;41980;45.550;12.070;2023-06-10T08:42:39;29.70;60.40
49148;DHT22;41980;45.550;12.070;2023-06-10T08:48:43;29.70;60.50
49148;DHT22;41980;45.550;12.070;2023-06-10T09:00:55;30.40;59.50
49148;DHT22;41980;45.550;12.070;2023-06-10T09:06:57;30.60;59.00
49148;DHT22;41980;45.550;12.070;2023-06-10T09:12:59;30.70;58.50
49148;DHT22;41980;45.550;12.070;2023-06-10T09:19:02;30.40;58.70
49148;DHT22;41980;45.550;12.070;2023-06-10T09:25:11;30.10;59.00
49148;DHT22;41980;45.550;12.070;2023-06-10T09:31:14;29.70;59.00
49148;DHT22;41980;45.550;12.070;2023-06-10T09:37:21;29.40;59.60
49148;DHT22;41980;45.550;12.070;2023-06-10T09:49:43;29.60;57.70
49148;DHT22;41980;45.550;12.070;2023-06-10T09:55:45;30.10;58.60
49148;DHT22;41980;45.550;12.070;2023-06-10T10:01:55;29.80;58.50
49148;DHT22;41980;45.550;12.070;2023-06-10T10:07:57;29.00;59.60
49148;DHT22;41980;45.550;12.070;2023-06-10T10:14:00;28.70;59.80
49148;DHT22;41980;45.550;12.070;2023-06-10T10:20:08;28.30;60.40
49148;DHT22;41980;45.550;12.070;2023-06-10T10:26:12;28.00;60.70
49148;DHT22;41980;45.550;12.070;2023-06-10T10:32:17;28.00;60.80
49148;DHT22;41980;45.550;12.070;2023-06-10T10:38:21;28.40;60.40
49148;DHT22;41980;45.550;12.070;2023-06-10T10:44:24;28.50;60.10
49148;DHT22;41980;45.550;12.070;2023-06-10T10:50:28;28.60;59.90
49148;DHT22;41980;45.550;12.070;2023-06-10T10:56:32;28.90;59.60
49148;DHT22;41980;45.550;12.070;2023-06-10T11:02:39;29.00;59.20
49148;DHT22;41980;45.550;12.070;2023-06-10T11:14:54;28.80;59.40
49148;DHT22;41980;45.550;12.070;2023-06-10T11:21:00;29.00;59.40
49148;DHT22;41980;45.550;12.070;2023-06-10T11:27:15;29.30;58.90
49148;DHT22;41980;45.550;12.070;2023-06-10T11:33:18;29.40;58.90
49148;DHT22;41980;45.550;12.070;2023-06-10T11:39:20;29.40;58.70
49148;DHT22;41980;45.550;12.070;2023-06-10T11:45:23;29.50;58.10
49148;DHT22;41980;45.550;12.070;2023-06-10T11:51:27;29.30;58.10
49148;DHT22;41980;45.550;12.070;2023-06-10T11:57:29;29.40;58.00
49148;DHT22;41980;45.550;12.070;2023-06-10T12:03:36;29.40;58.00
49148;DHT22;41980;45.550;12.070;2023-06-10T12:09:39;29.40;57.70
49148;DHT22;41980;45.550;12.070;2023-06-10T12:15:41;29.20;57.60
49148;DHT22;41980;45.550;12.070;2023-06-10T12:21:44;29.00;58.10
49148;DHT22;41980;45.550;12.070;2023-06-10T12:27:52;28.70;58.40
49148;DHT22;41980;45.550;12.070;2023-06-10T12:40:05;28.70;58.50
49148;DHT22;41980;45.550;12.070;2023-06-10T12:46:10;28.80;58.10
49148;DHT22;41980;45.550;12.070;2023-06-10T12:52:14;28.80;58.00
49148;DHT22;41980;45.550;12.070;2023-06-10T12:58:16;28.70;57.70
49148;DHT22;41980;45.550;12.070;2023-06-10T13:04:20;28.60;57.70
49148;DHT22;41980;45.550;12.070;2023-06-10T13:10:23;28.60;57.70
49148;DHT22;41980;45.550;12.070;2023-06-10T13:16:26;28.50;57.80
49148;DHT22;41980;45.550;12.070;2023-06-10T13:22:28;28.50;57.80
49148;DHT22;41980;45.550;12.070;2023-06-10T13:28:32;28.70;57.70
49148;DHT22;41980;45.550;12.070;2023-06-10T13:34:36;28.80;57.50
49148;DHT22;41980;45.550;12.070;2023-06-10T13:40:38;28.70;57.10
49148;DHT22;41980;45.550;12.070;2023-06-10T13:46:41;28.60;57.50
49148;DHT22;41980;45.550;12.070;2023-06-10T13:52:44;28.50;57.50
49148;DHT22;41980;45.550;12.070;2023-06-10T13:58:46;28.50;57.50
49148;DHT22;41980;45.550;12.070;2023-06-10T14:04:48;28.50;57.40
49148;DHT22;41980;45.550;12.070;2023-06-10T14:10:50;28.50;56.90
49148;DHT22;41980;45.550;12.070;2023-06-10T14:16:53;28.40;57.00
49148;DHT22;41980;45.550;12.070;2023-06-10T14:22:55;28.30;57.00
49148;DHT22;41980;45.550;12.070;2023-06-10T14:28:57;28.20;57.00
49148;DHT22;41980;45.550;12.070;2023-06-10T14:34:59;28.00;56.60
49148;DHT22;41980;45.550;12.070;2023-06-10T14:41:01;27.90;57.10
49148;DHT22;41980;45.550;12.070;2023-06-10T14:47:04;27.80;57.10
49148;DHT22;41980;45.550;12.070;2023-06-10T14:53:06;27.70;57.20
49148;DHT22;41980;45.550;12.070;2023-06-10T14:59:08;27.60;57.00
49148;DHT22;41980;45.550;12.070;2023-06-10T15:05:10;27.50;57.00
49148;DHT22;41980;45.550;12.070;2023-06-10T15:11:13;27.70;57.00
49148;DHT22;41980;45.550;12.070;2023-06-10T15:17:15;27.70;56.80
49148;DHT22;41980;45.550;12.070;2023-06-10T15:23:17;27.60;56.60
49148;DHT22;41980;45.550;12.070;2023-06-10T15:29:19;27.50;56.60
49148;DHT22;41980;45.550;12.070;2023-06-10T15:35:21;27.50;56.40
49148;DHT22;41980;45.550;12.070;2023-06-10T15:41:23;27.40;56.70
49148;DHT22;41980;45.550;12.070;2023-06-10T15:47:26;27.30;56.70
49148;DHT22;41980;45.550;12.070;2023-06-10T15:53:28;27.30;56.80
49148;DHT22;41980;45.550;12.070;2023-06-10T15:59:30;27.20;56.90
49148;DHT22;41980;45.550;12.070;2023-06-10T16:05:32;27.20;56.80
49148;DHT22;41980;45.550;12.070;2023-06-10T16:11:35;27.10;57.00
49148;DHT22;41980;45.550;12.070;2023-06-10T16:17:37;27.00;57.00
49148;DHT22;41980;45.550;12.070;2023-06-10T16:23:39;27.00;57.00
49148;DHT22;41980;45.550;12.070;2023-06-10T16:29:41;27.00;57.00
49148;DHT22;41980;45.550;12.070;2023-06-10T16:35:43;27.00;57.10
49148;DHT22;41980;45.550;12.070;2023-06-10T16:41:45;27.00;57.10
49148;DHT22;41980;45.550;12.070;2023-06-10T16:47:48;26.90;57.20
49148;DHT22;41980;45.550;12.070;2023-06-10T16:53:51;26.90;57.40
49148;DHT22;41980;45.550;12.070;2023-06-10T16:59:53;26.70;57.40
49148;DHT22;41980;45.550;12.070;2023-06-10T17:05:55;26.70;57.60
49148;DHT22;41980;45.550;12.070;2023-06-10T17:11:59;26.70;57.50
49148;DHT22;41980;45.550;12.070;2023-06-10T17:18:02;26.10;57.80
49148;DHT22;41980;45.550;12.070;2023-06-10T17:24:04;25.30;59.50
49148;DHT22;41980;45.550;12.070;2023-06-10T17:30:07;24.70;60.70
49148;DHT22;41980;45.550;12.070;2023-06-10T17:36:09;24.50;61.10
49148;DHT22;41980;45.550;12.070;2023-06-10T17:42:11;24.30;61.90
49148;DHT22;41980;45.550;12.070;2023-06-10T17:48:14;24.10;61.70
49148;DHT22;41980;45.550;12.070;2023-06-10T17:54:17;23.90;63.50
49148;DHT22;41980;45.550;12.070;2023-06-10T18:00:27;23.60;64.20
49148;DHT22;41980;45.550;12.070;2023-06-10T18:06:31;23.40;65.40
49148;DHT22;41980;45.550;12.070;2023-06-10T18:12:34;23.10;66.00
49148;DHT22;41980;45.550;12.070;2023-06-10T18:18:36;23.00;65.70
49148;DHT22;41980;45.550;12.070;2023-06-10T18:24:39;23.00;66.00
49148;DHT22;41980;45.550;12.070;2023-06-10T18:30:41;22.90;66.40
49148;DHT22;41980;45.550;12.070;2023-06-10T18:36:43;22.50;67.20
49148;DHT22;41980;45.550;12.070;2023-06-10T18:42:47;22.20;70.10
49148;DHT22;41980;45.550;12.070;2023-06-10T18:48:50;21.70;71.50
49148;DHT22;41980;45.550;12.070;2023-06-10T18:54:53;21.30;73.90
49148;DHT22;41980;45.550;12.070;2023-06-10T19:00:55;21.10;73.30
49148;DHT22;41980;45.550;12.070;2023-06-10T19:06:57;21.00;74.50
49148;DHT22;41980;45.550;12.070;2023-06-10T19:12:59;21.00;74.50
49148;DHT22;41980;45.550;12.070;2023-06-10T19:19:01;21.10;73.50
49148;DHT22;41980;45.550;12.070;2023-06-10T19:25:05;21.10;72.50
49148;DHT22;41980;45.550;12.070;2023-06-10T19:31:08;21.10;72.10
49148;DHT22;41980;45.550;12.070;2023-06-10T19:37:10;21.20;72.20
49148;DHT22;41980;45.550;12.070;2023-06-10T19:43:12;21.30;72.90
49148;DHT22;41980;45.550;12.070;2023-06-10T19:49:14;21.30;71.40
49148;DHT22;41980;45.550;12.070;2023-06-10T19:55:17;21.30;71.40
49148;DHT22;41980;45.550;12.070;2023-06-10T20:01:19;21.40;72.20
49148;DHT22;41980;45.550;12.070;2023-06-10T20:07:21;21.50;71.00
49148;DHT22;41980;45.550;12.070;2023-06-10T20:13:24;21.50;71.60
49148;DHT22;41980;45.550;12.070;2023-06-10T20:19:26;21.50;71.30
49148;DHT22;41980;45.550;12.070;2023-06-10T20:25:29;21.50;70.90
49148;DHT22;41980;45.550;12.070;2023-06-10T20:31:33;21.40;70.80
49148;DHT22;41980;45.550;12.070;2023-06-10T20:37:36;21.30;71.30
49148;DHT22;41980;45.550;12.070;2023-06-10T20:43:39;21.30;71.50
49148;DHT22;41980;45.550;12.070;2023-06-10T20:49:41;21.20;71.50
49148;DHT22;41980;45.550;12.070;2023-06-10T20:55:43;21.10;71.60
49148;DHT22;41980;45.550;12.070;2023-06-10T21:01:45;21.00;71.50
49148;DHT22;41980;45.550;12.070;2023-06-10T21:07:47;20.90;71.70
49148;DHT22;41980;45.550;12.070;2023-06-10T21:13:49;20.80;71.70
49148;DHT22;41980;45.550;12.070;2023-06-10T21:19:51;20.80;72.00
49148;DHT22;41980;45.550;12.070;2023-06-10T21:25:53;20.80;72.20
49148;DHT22;41980;45.550;12.070;2023-06-10T21:31:55;20.70;72.00
49148;DHT22;41980;45.550;12.070;2023-06-10T21:37:59;20.70;72.80
49148;DHT22;41980;45.550;12.070;2023-06-10T21:44:01;20.70;72.80
49148;DHT22;41980;45.550;12.070;2023-06-10T21:50:03;20.50;72.10
49148;DHT22;41980;45.550;12.070;2023-06-10T21:56:05;20.50;72.20
49148;DHT22;41980;45.550;12.070;2023-06-10T22:02:07;20.50;72.40
49148;DHT22;41980;45.550;12.070;2023-06-10T22:08:10;20.40;72.10
49148;DHT22;41980;45.550;12.070;2023-06-10T22:14:14;20.50;72.60
49148;DHT22;41980;45.550;12.070;2023-06-10T22:20:16;20.50;72.20
49148;DHT22;41980;45.550;12.070;2023-06-10T22:26:18;20.40;72.20
49148;DHT22;41980;45.550;12.070;2023-06-10T22:32:21;20.40;72.00
49148;DHT22;41980;45.550;12.070;2023-06-10T22:38:23;20.40;72.10
49148;DHT22;41980;45.550;12.070;2023-06-10T22:44:25;20.40;72.90
49148;DHT22;41980;45.550;12.070;2023-06-10T22:50:29;20.50;71.90
49148;DHT22;41980;45.550;12.070;2023-06-10T22:56:32;20.50;71.80
49148;DHT22;41980;45.550;12.070;2023-06-10T23:02:34;20.50;71.70
49148;DHT22;41980;45.550;12.070;2023-06-10T23:08:37;20.50;71.70
49148;DHT22;41980;45.550;12.070;2023-06-10T23:14:39;20.50;72.10
49148;DHT22;41980;45.550;12.070;2023-06-10T23:20:41;20.50;71.80
49148;DHT22;41980;45.550;12.070;2023-06-10T23:26:47;20.50;71.60
49148;DHT22;41980;45.550;12.070;2023-06-10T23:32:50;20.40;71.80
49148;DHT22;41980;45.550;12.070;2023-06-10T23:38:52;20.40;72.20
49148;DHT22;41980;45.550;12.070;2023-06-10T23:44:55;20.40;72.20
49148;DHT22;41980;45.550;12.070;2023-06-10T23:50:57;20.40;72.10
49148;DHT22;41980;45.550;12.070;2023-06-10T23:57:01;20.40;71.70
